Time;durP1;ratioP1;P1;durP2;ratioP2;P2;SDS_P1;SDS_P2;PMS_P1;PMS_P2;Temp;Humidity;BMP_temperature;BMP_pressure;BME280_temperature;BME280_humidity;BME280_pressure;Samples;Min_cycle;Max_cycle;Signal;HPM_P1;HPM_P2
2022/09/10 00:00:23;;;;;;;6.22;1.92;;;14.30;43.10;;;;;;7364951;19;20466;-66
2022/09/10 00:02:53;;;;;;;4.15;2.10;;;14.30;41.80;;;;;;7363311;19;20470;-66
2022/09/10 00:05:23;;;;;;;4.03;1.90;;;14.20;40.80;;;;;;7366831;19;20466;-65
2022/09/10 00:07:57;;;;;;;5.60;1.60;;;14.20;42.10;;;;;;7366547;19;20507;-66
2022/09/10 00:10:26;;;;;;;5.80;1.43;;;14.20;42.90;;;;;;7387054;19;20463;-67
2022/09/10 00:12:56;;;;;;;2.80;1.15;;;14.20;43.10;;;;;;7362958;19;20010;-65
2022/09/10 00:15:26;;;;;;;2.00;1.00;;;14.20;43.00;;;;;;7366926;19;20006;-65
2022/09/10 00:17:56;;;;;;;2.35;0.93;;;14.20;44.30;;;;;;7367481;19;20038;-65
2022/09/10 00:20:26;;;;;;;4.60;1.20;;;14.10;43.70;;;;;;7364208;19;20010;-66
2022/09/10 00:22:59;;;;;;;3.03;1.08;;;14.10;44.70;;;;;;7363612;19;20122;-66
2022/09/10 00:25:31;;;;;;;3.50;1.38;;;14.10;44.80;;;;;;7389452;19;20348;-65
2022/09/10 00:28:01;;;;;;;7.85;1.50;;;14.10;45.00;;;;;;7366620;19;20027;-65
2022/09/10 00:30:31;;;;;;;4.25;1.70;;;14.20;46.20;;;;;;7363952;19;20046;-67
2022/09/10 00:33:01;;;;;;;3.42;1.42;;;14.10;46.40;;;;;;7362429;19;20064;-65
2022/09/10 00:35:33;;;;;;;4.03;1.75;;;14.20;46.80;;;;;;7366819;19;20029;-66
2022/09/10 00:38:06;;;;;;;3.63;1.90;;;14.20;46.80;;;;;;7365360;19;20399;-65
2022/09/10 00:40:37;;;;;;;4.38;1.85;;;14.30;46.90;;;;;;7364083;19;20015;-66
2022/09/10 00:43:13;;;;;;;6.65;2.15;;;14.30;46.90;;;;;;7383960;19;20006;-66
2022/09/10 00:45:44;;;;;;;3.97;1.77;;;14.40;46.90;;;;;;7365221;19;20018;-66
2022/09/10 00:48:19;;;;;;;2.72;1.33;;;14.40;46.50;;;;;;7367111;19;20344;-66
2022/09/10 00:50:51;;;;;;;4.72;1.60;;;14.40;45.20;;;;;;7363855;19;20011;-66
2022/09/10 00:53:28;;;;;;;3.80;1.65;;;14.50;45.30;;;;;;7362263;19;20051;-66
2022/09/10 00:56:03;;;;;;;4.65;1.70;;;14.50;45.40;;;;;;7364454;19;20018;-66
2022/09/10 00:58:33;;;;;;;8.10;2.05;;;14.50;46.10;;;;;;7365201;19;20010;-66
2022/09/10 01:01:05;;;;;;;5.80;2.15;;;14.60;46.70;;;;;;7383346;19;20010;-65
2022/09/10 01:03:35;;;;;;;3.40;1.83;;;14.50;46.90;;;;;;7361254;19;20010;-65
2022/09/10 01:06:05;;;;;;;3.60;1.50;;;14.50;47.60;;;;;;7365058;19;20010;-66
2022/09/10 01:08:37;;;;;;;3.72;1.58;;;14.40;46.60;;;;;;7365389;19;20019;-65
2022/09/10 01:11:19;;;;;;;4.75;1.42;;;14.40;46.00;;;;;;7363128;19;20018;-66
2022/09/10 01:14:05;;;;;;;3.17;1.30;;;14.40;45.40;;;;;;7361618;19;20014;-66
2022/09/10 01:16:44;;;;;;;4.35;1.38;;;14.40;46.40;;;;;;7365200;19;20042;-66
2022/09/10 01:19:36;;;;;;;5.22;1.30;;;14.40;45.90;;;;;;7385813;19;20015;-66
2022/09/10 01:22:16;;;;;;;4.45;1.63;;;14.40;45.30;;;;;;7361162;19;20038;-66
2022/09/10 01:24:55;;;;;;;3.58;1.50;;;14.40;46.70;;;;;;7361711;19;20351;-66
2022/09/10 01:27:46;;;;;;;4.32;1.63;;;14.40;46.30;;;;;;7362962;19;20471;-66
2022/09/10 01:30:19;;;;;;;2.40;1.23;;;14.40;46.40;;;;;;7361109;19;20006;-66
2022/09/10 01:33:00;;;;;;;2.00;1.10;;;14.40;46.80;;;;;;7362729;19;20017;-65
2022/09/10 01:35:39;;;;;;;4.75;1.10;;;14.40;45.80;;;;;;7363416;19;20007;-66
2022/09/10 01:38:14;;;;;;;3.92;1.35;;;14.40;45.00;;;;;;7366629;19;20014;-65
2022/09/10 01:40:45;;;;;;;3.60;1.10;;;14.40;44.00;;;;;;7361456;19;20021;-65
2022/09/10 01:43:18;;;;;;;5.72;1.35;;;14.40;45.00;;;;;;7383014;19;20018;-65
2022/09/10 01:45:59;;;;;;;3.60;1.17;;;14.40;45.30;;;;;;7364504;19;20049;-65
2022/09/10 01:48:49;;;;;;;3.33;1.10;;;14.30;45.00;;;;;;7363920;19;20014;-65
2022/09/10 01:51:29;;;;;;;2.95;1.20;;;14.30;45.00;;;;;;7362162;19;20006;-66
2022/09/10 01:54:25;;;;;;;3.72;1.50;;;14.30;45.10;;;;;;7361745;19;20391;-65
2022/09/10 01:57:05;;;;;;;4.07;1.45;;;14.30;45.50;;;;;;7361049;19;20011;-65
2022/09/10 01:59:42;;;;;;;7.28;1.20;;;14.20;46.40;;;;;;7363975;19;20010;-65
2022/09/10 02:02:18;;;;;;;3.40;1.00;;;14.20;46.30;;;;;;7359994;19;20011;-66
2022/09/10 02:04:50;;;;;;;2.95;1.10;;;14.20;45.70;;;;;;7359849;19;20319;-65
2022/09/10 02:07:23;;;;;;;2.72;1.00;;;14.20;46.40;;;;;;7385605;19;20018;-66
2022/09/10 02:09:55;;;;;;;4.43;1.17;;;14.20;46.80;;;;;;7362868;19;20010;-65
2022/09/10 02:12:25;;;;;;;4.88;1.05;;;14.20;47.60;;;;;;7362062;19;20475;-65
2022/09/10 02:14:59;;;;;;;4.57;1.20;;;14.20;47.70;;;;;;7360355;19;20010;-65
2022/09/10 02:17:33;;;;;;;2.78;1.50;;;14.20;47.50;;;;;;7364690;19;20010;-66
2022/09/10 02:20:04;;;;;;;;;;;14.20;48.20;;;;;;7359685;19;20018;-65
2022/09/10 02:22:37;;;;;;;3.97;1.02;;;14.20;47.80;;;;;;7361277;19;20279;-65
2022/09/10 02:25:08;;;;;;;4.80;1.40;;;14.10;48.40;;;;;;7382287;19;20052;-66
2022/09/10 02:27:38;;;;;;;3.90;1.40;;;14.10;49.10;;;;;;7362940;19;20062;-66
2022/09/10 02:30:14;;;;;;;4.40;1.15;;;14.10;49.10;;;;;;7360590;19;20030;-66
2022/09/10 02:32:44;;;;;;;7.53;1.65;;;14.10;49.40;;;;;;7361140;19;20398;-66
2022/09/10 02:35:14;;;;;;;6.88;1.30;;;14.10;51.00;;;;;;7362206;19;20058;-65
2022/09/10 02:37:44;;;;;;;4.88;1.58;;;14.10;51.20;;;;;;7363236;19;20018;-66
2022/09/10 02:40:14;;;;;;;2.60;1.38;;;14.10;52.20;;;;;;7380732;19;20665;-66
2022/09/10 02:42:45;;;;;;;3.63;1.38;;;14.10;52.90;;;;;;7360925;19;20035;-66
2022/09/10 02:45:18;;;;;;;4.78;1.60;;;14.10;53.00;;;;;;7361907;19;20007;-66
2022/09/10 02:47:47;;;;;;;4.50;2.10;;;14.10;53.70;;;;;;7363852;19;20462;-66
2022/09/10 02:50:17;;;;;;;4.68;2.17;;;14.10;54.10;;;;;;7359651;19;20901;-66
2022/09/10 02:52:47;;;;;;;2.70;1.50;;;14.10;54.50;;;;;;7359626;19;20019;-66
2022/09/10 02:55:17;;;;;;;3.58;1.40;;;14.00;54.10;;;;;;7383192;19;20018;-66
2022/09/10 02:57:48;;;;;;;5.05;1.25;;;14.10;54.50;;;;;;7361926;19;20010;-65
2022/09/10 03:00:21;;;;;;;3.35;1.40;;;14.00;54.40;;;;;;7359518;19;20617;-66
2022/09/10 03:02:51;;;;;;;2.43;1.50;;;14.00;54.80;;;;;;7358696;19;20018;-65
2022/09/10 03:05:21;;;;;;;3.55;1.52;;;14.00;55.40;;;;;;7360932;19;20038;-65
2022/09/10 03:07:51;;;;;;;3.30;1.50;;;14.00;55.60;;;;;;7362026;19;20039;-66
2022/09/10 03:10:21;;;;;;;2.97;1.02;;;14.00;55.90;;;;;;7385045;19;20010;-65
2022/09/10 03:12:52;;;;;;;3.45;1.60;;;14.00;55.90;;;;;;7366351;19;20014;-65
2022/09/10 03:15:24;;;;;;;4.00;1.63;;;14.00;57.00;;;;;;7368886;19;20038;-66
2022/09/10 03:17:54;;;;;;;2.45;1.80;;;14.10;57.10;;;;;;7367714;19;20014;-66
2022/09/10 03:20:24;;;;;;;5.10;1.35;;;14.10;57.10;;;;;;7366451;19;20473;-66
2022/09/10 03:22:53;;;;;;;2.05;1.48;;;14.10;57.20;;;;;;7364470;19;20510;-66
2022/09/10 03:25:23;;;;;;;3.17;1.42;;;14.10;57.20;;;;;;7390326;19;20011;-66
2022/09/10 03:27:53;;;;;;;4.15;1.75;;;14.10;57.40;;;;;;7367848;19;20477;-65
2022/09/10 03:30:26;;;;;;;3.40;1.42;;;14.10;57.50;;;;;;7365084;19;20014;-65
2022/09/10 03:32:56;;;;;;;2.00;1.45;;;14.10;57.80;;;;;;7364751;19;20055;-66
2022/09/10 03:35:26;;;;;;;9.65;2.13;;;14.10;57.80;;;;;;7367469;19;20002;-66
2022/09/10 03:37:56;;;;;;;1.20;1.10;;;14.10;57.70;;;;;;7368081;19;20015;-66
2022/09/10 03:40:28;;;;;;;5.90;1.50;;;14.10;57.90;;;;;;7386170;19;20018;-66
2022/09/10 03:42:58;;;;;;;5.03;1.45;;;14.20;58.30;;;;;;7363853;19;20018;-65
2022/09/10 03:45:30;;;;;;;2.65;1.30;;;14.20;58.40;;;;;;7367674;19;20032;-67
2022/09/10 03:48:02;;;;;;;6.47;1.73;;;14.10;57.60;;;;;;7366920;19;20010;-66
2022/09/10 03:50:32;;;;;;;6.70;1.90;;;14.20;57.90;;;;;;7364497;19;20026;-66
2022/09/10 03:53:02;;;;;;;3.97;1.30;;;14.10;57.80;;;;;;7365469;19;20014;-66
2022/09/10 03:55:33;;;;;;;2.58;1.30;;;14.10;57.80;;;;;;7370480;19;20010;-67
2022/09/10 03:58:02;;;;;;;4.18;1.77;;;14.20;58.10;;;;;;7390651;19;20478;-66
2022/09/10 04:00:35;;;;;;;4.72;1.52;;;14.20;57.90;;;;;;7364728;19;20421;-65
2022/09/10 04:03:05;;;;;;;5.15;1.75;;;14.20;58.20;;;;;;7362173;19;20007;-65
2022/09/10 04:05:35;;;;;;;3.63;1.80;;;14.20;57.50;;;;;;7366116;19;20038;-65
2022/09/10 04:08:06;;;;;;;6.10;1.88;;;14.20;57.70;;;;;;7369497;19;20487;-66
2022/09/10 04:10:36;;;;;;;5.13;1.80;;;14.30;58.20;;;;;;7364305;19;20014;-66
2022/09/10 04:13:05;;;;;;;4.82;1.90;;;14.20;57.70;;;;;;7385861;19;20557;-66
2022/09/10 04:15:38;;;;;;;5.50;1.80;;;14.30;58.30;;;;;;7366504;19;20034;-65
2022/09/10 04:18:09;;;;;;;3.53;2.00;;;14.20;57.40;;;;;;7367347;19;20006;-66
2022/09/10 04:20:39;;;;;;;3.42;2.10;;;14.30;57.90;;;;;;7363334;19;20015;-67
2022/09/10 04:23:09;;;;;;;2.65;1.50;;;14.30;57.40;;;;;;7363865;19;21099;-66
2022/09/10 04:25:39;;;;;;;3.20;1.63;;;14.30;58.00;;;;;;7366019;19;20010;-67
2022/09/10 04:28:10;;;;;;;2.25;1.67;;;14.40;57.40;;;;;;7390570;19;20497;-66
2022/09/10 04:30:42;;;;;;;5.00;1.70;;;14.40;57.40;;;;;;7363273;19;20010;-66
2022/09/10 04:33:12;;;;;;;3.40;1.70;;;14.30;57.30;;;;;;7362181;19;20034;-65
2022/09/10 04:35:42;;;;;;;10.05;2.20;;;14.30;57.30;;;;;;7365011;19;20474;-65
2022/09/10 04:38:12;;;;;;;5.30;1.83;;;14.30;57.40;;;;;;7368308;19;20011;-66
2022/09/10 04:40:42;;;;;;;3.92;1.60;;;14.20;57.30;;;;;;7362556;19;20015;-66
2022/09/10 04:43:11;;;;;;;5.40;1.73;;;14.20;57.30;;;;;;7384054;19;20372;-66
2022/09/10 04:45:44;;;;;;;3.45;1.60;;;14.20;57.20;;;;;;7363718;19;20478;-66
2022/09/10 04:48:14;;;;;;;5.72;1.70;;;14.20;57.20;;;;;;7366555;19;20082;-66
2022/09/10 04:50:43;;;;;;;2.78;1.33;;;14.20;57.20;;;;;;7362860;19;20011;-65
2022/09/10 04:53:33;;;;;;;4.95;1.50;;;14.30;57.30;;;;;;7360651;19;20049;-66
2022/09/10 04:56:03;;;;;;;4.22;1.20;;;14.30;57.10;;;;;;7365456;19;20042;-66
2022/09/10 04:58:33;;;;;;;2.60;1.60;;;14.30;57.10;;;;;;7367977;19;20014;-67
2022/09/10 05:01:10;;;;;;;2.25;1.30;;;14.30;56.80;;;;;;7384552;19;20478;-67
2022/09/10 05:03:40;;;;;;;4.22;1.38;;;14.30;56.00;;;;;;7359134;19;20547;-66
2022/09/10 05:06:10;;;;;;;5.40;1.60;;;14.30;55.40;;;;;;7365579;19;20011;-66
2022/09/10 05:08:40;;;;;;;3.00;1.25;;;14.30;54.70;;;;;;7367087;19;20006;-66
2022/09/10 05:11:10;;;;;;;4.05;1.50;;;14.30;53.80;;;;;;7363484;19;20006;-66
2022/09/10 05:13:41;;;;;;;4.80;1.13;;;14.30;53.60;;;;;;7360917;19;20014;-66
2022/09/10 05:16:13;;;;;;;3.53;1.45;;;14.30;54.30;;;;;;7387352;19;20011;-66
2022/09/10 05:18:43;;;;;;;2.60;1.33;;;14.30;53.60;;;;;;7365574;19;20018;-67
2022/09/10 05:21:13;;;;;;;3.70;1.25;;;14.40;54.00;;;;;;7362897;19;20010;-66
2022/09/10 05:23:43;;;;;;;3.92;1.33;;;14.40;53.20;;;;;;7358920;19;20010;-66
2022/09/10 05:26:13;;;;;;;3.85;1.42;;;14.40;53.50;;;;;;7365315;19;20490;-65
2022/09/10 05:28:42;;;;;;;3.20;1.60;;;14.40;53.30;;;;;;7365893;19;20046;-65
2022/09/10 05:31:16;;;;;;;4.10;1.40;;;14.40;53.40;;;;;;7383924;19;20006;-65
2022/09/10 05:33:45;;;;;;;4.15;1.42;;;14.40;53.40;;;;;;7357423;19;20394;-66
2022/09/10 05:36:16;;;;;;;4.43;1.48;;;14.40;53.40;;;;;;7364419;19;20013;-66
2022/09/10 05:38:46;;;;;;;4.43;1.45;;;14.30;53.10;;;;;;7365402;19;20013;-66
2022/09/10 05:41:16;;;;;;;2.83;1.73;;;14.40;53.40;;;;;;7362639;19;20018;-66
2022/09/10 05:43:46;;;;;;;2.13;1.42;;;14.50;53.50;;;;;;7358897;19;20014;-66
2022/09/10 05:46:18;;;;;;;2.95;1.70;;;14.40;51.30;;;;;;7386402;19;20014;-66
2022/09/10 05:48:48;;;;;;;3.17;1.33;;;14.50;49.50;;;;;;7365365;19;20034;-66
2022/09/10 05:51:18;;;;;;;3.13;1.45;;;14.50;50.00;;;;;;7362177;19;20478;-66
2022/09/10 05:53:48;;;;;;;1.75;1.00;;;14.60;49.50;;;;;;7360188;19;20003;-66
2022/09/10 05:56:19;;;;;;;3.03;1.20;;;14.60;49.40;;;;;;7364641;19;20098;-66
2022/09/10 05:58:49;;;;;;;5.00;1.33;;;14.60;49.00;;;;;;7364763;19;20014;-66
2022/09/10 06:01:22;;;;;;;3.40;1.15;;;14.60;48.70;;;;;;7383286;19;20042;-66
2022/09/10 06:03:52;;;;;;;2.28;0.88;;;14.70;49.20;;;;;;7359274;19;20694;-68
2022/09/10 06:06:21;;;;;;;1.80;1.20;;;14.60;48.50;;;;;;7362999;19;20437;-66
2022/09/10 06:08:53;;;;;;;2.35;1.25;;;14.60;49.20;;;;;;7362819;19;20014;-66
2022/09/10 06:11:23;;;;;;;3.95;1.30;;;14.60;48.30;;;;;;7361397;19;20026;-66
2022/09/10 06:13:53;;;;;;;3.45;1.00;;;14.70;47.20;;;;;;7360463;19;20053;-67
2022/09/10 06:16:25;;;;;;;3.78;1.40;;;14.70;47.00;;;;;;7384716;19;20034;-67
2022/09/10 06:18:56;;;;;;;2.60;0.98;;;14.70;48.40;;;;;;7363435;19;20017;-67
2022/09/10 06:21:26;;;;;;;2.53;1.00;;;14.70;48.30;;;;;;7359078;19;20014;-67
2022/09/10 06:23:57;;;;;;;1.15;0.90;;;14.80;48.00;;;;;;7359288;19;20579;-67
2022/09/10 06:26:27;;;;;;;2.38;1.05;;;14.70;45.50;;;;;;7362914;19;20371;-66
2022/09/10 06:28:56;;;;;;;2.35;0.80;;;14.80;47.30;;;;;;7364524;19;20042;-66
2022/09/10 06:31:29;;;;;;;2.17;0.95;;;14.80;45.80;;;;;;7380149;19;20018;-66
2022/09/10 06:33:58;;;;;;;1.58;1.10;;;14.90;45.60;;;;;;7360050;19;20046;-66
2022/09/10 06:36:29;;;;;;;1.83;0.90;;;15.00;45.70;;;;;;7362886;19;20011;-66
2022/09/10 06:39:00;;;;;;;2.85;0.93;;;15.10;44.80;;;;;;7361602;19;20490;-66
2022/09/10 06:41:30;;;;;;;4.65;0.82;;;15.10;42.80;;;;;;7359020;19;20010;-66
2022/09/10 06:44:00;;;;;;;1.73;0.85;;;15.10;41.90;;;;;;7361074;19;20010;-66
2022/09/10 06:46:32;;;;;;;4.90;1.00;;;15.20;43.40;;;;;;7391279;19;20461;-66
2022/09/10 06:49:22;;;;;;;2.92;1.05;;;15.30;43.50;;;;;;7370063;19;20496;-67
2022/09/10 06:51:52;;;;;;;1.88;1.13;;;15.40;43.00;;;;;;7365360;19;20206;-67
2022/09/10 06:54:22;;;;;;;5.30;1.20;;;15.50;42.80;;;;;;7366347;19;20010;-67
2022/09/10 06:56:52;;;;;;;4.03;1.25;;;15.50;41.80;;;;;;7369892;19;20088;-66
2022/09/10 06:59:22;;;;;;;1.92;0.88;;;15.60;41.90;;;;;;7370686;19;20038;-66
2022/09/10 07:01:54;;;;;;;1.83;1.08;;;15.60;40.90;;;;;;7365551;19;20004;-66
2022/09/10 07:04:24;;;;;;;1.17;0.93;;;15.80;40.40;;;;;;7386088;19;20011;-67
2022/09/10 07:06:54;;;;;;;1.88;0.70;;;15.90;38.70;;;;;;7366965;19;20387;-67
2022/09/10 07:09:24;;;;;;;2.25;1.00;;;15.90;36.90;;;;;;7369704;19;20010;-66
2022/09/10 07:11:54;;;;;;;6.03;1.00;;;15.90;38.10;;;;;;7366083;19;20014;-66
2022/09/10 07:14:23;;;;;;;3.30;0.90;;;16.00;38.00;;;;;;7365451;19;20015;-67
2022/09/10 07:16:56;;;;;;;5.38;0.98;;;16.00;33.90;;;;;;7369272;19;20030;-67
2022/09/10 07:19:26;;;;;;;4.32;0.80;;;16.00;34.90;;;;;;7391578;19;20462;-67
2022/09/10 07:21:56;;;;;;;1.33;0.80;;;16.00;33.50;;;;;;7364257;19;20010;-67
2022/09/10 07:24:28;;;;;;;2.47;0.82;;;16.00;33.70;;;;;;7364544;19;20015;-65
2022/09/10 07:26:58;;;;;;;2.33;0.90;;;16.00;32.30;;;;;;7368946;19;20022;-67
2022/09/10 07:29:30;;;;;;;1.38;0.82;;;16.10;33.80;;;;;;7368081;19;20011;-67
2022/09/10 07:32:03;;;;;;;2.63;0.90;;;16.20;33.90;;;;;;7364555;19;20090;-65
2022/09/10 07:34:33;;;;;;;4.07;1.40;;;16.30;31.10;;;;;;7362771;19;20002;-67
2022/09/10 07:37:02;;;;;;;2.45;0.80;;;16.30;30.00;;;;;;7387875;19;20015;-66
2022/09/10 07:39:32;;;;;;;1.65;0.80;;;16.30;27.80;;;;;;7368919;19;20021;-67
2022/09/10 07:42:02;;;;;;;2.95;0.70;;;16.30;28.40;;;;;;7364112;19;20011;-66
2022/09/10 07:44:32;;;;;;;1.38;0.90;;;16.40;28.10;;;;;;7363073;19;20526;-65
2022/09/10 07:47:04;;;;;;;2.75;1.08;;;16.40;28.50;;;;;;7367794;19;20029;-67
2022/09/10 07:49:34;;;;;;;3.75;0.80;;;16.50;29.00;;;;;;7368992;19;20414;-67
2022/09/10 07:52:06;;;;;;;1.88;0.85;;;16.50;27.10;;;;;;7383805;19;20010;-66
2022/09/10 07:54:35;;;;;;;1.40;0.60;;;16.40;26.50;;;;;;7364392;19;20550;-66
2022/09/10 07:57:06;;;;;;;3.13;0.65;;;16.40;25.20;;;;;;7365853;19;20032;-66
2022/09/10 07:59:35;;;;;;;1.20;0.70;;;16.40;25.60;;;;;;7367225;19;20016;-67
2022/09/10 08:02:08;;;;;;;2.05;0.63;;;16.40;24.00;;;;;;7363029;19;20022;-66
2022/09/10 08:04:38;;;;;;;4.10;0.98;;;16.50;26.40;;;;;;7362888;19;20026;-66
2022/09/10 08:07:08;;;;;;;3.78;0.88;;;16.60;26.00;;;;;;7386639;19;20022;-67
2022/09/10 08:09:38;;;;;;;3.95;1.08;;;16.70;26.10;;;;;;7367054;19;20018;-67
2022/09/10 08:12:08;;;;;;;1.05;0.60;;;16.70;23.10;;;;;;7362124;19;20010;-65
2022/09/10 08:14:38;;;;;;;4.30;0.90;;;16.80;23.60;;;;;;7362650;19;20437;-66
2022/09/10 08:17:11;;;;;;;2.33;1.10;;;16.90;22.20;;;;;;7366398;19;20108;-67
2022/09/10 08:19:41;;;;;;;2.15;1.00;;;16.90;21.10;;;;;;7366209;19;20474;-67
2022/09/10 08:22:13;;;;;;;1.75;0.80;;;17.10;20.40;;;;;;7384149;19;20010;-66
2022/09/10 08:24:42;;;;;;;4.20;1.08;;;17.30;21.00;;;;;;7362102;19;20035;-68
2022/09/10 08:27:12;;;;;;;3.05;1.05;;;17.50;18.10;;;;;;7365660;19;20007;-66
2022/09/10 08:29:42;;;;;;;2.30;0.60;;;17.80;17.90;;;;;;7365743;19;20006;-67
2022/09/10 08:32:14;;;;;;;1.35;0.80;;;17.70;13.10;;;;;;7361850;19;20059;-67
2022/09/10 08:34:45;;;;;;;1.73;0.70;;;17.90;9.80;;;;;;7362209;19;20018;-67
2022/09/10 08:37:15;;;;;;;1.90;0.75;;;18.10;5.80;;;;;;7387412;19;20022;-66
2022/09/10 08:39:44;;;;;;;4.30;0.60;;;18.20;3.80;;;;;;7366144;19;20467;-67
2022/09/10 08:42:21;;;;;;;3.35;0.88;;;18.10;3.10;;;;;;7361770;19;20010;-66
2022/09/10 08:44:56;;;;;;;3.40;1.08;;;18.20;3.10;;;;;;7360870;19;20010;-67
2022/09/10 08:47:34;;;;;;;2.13;0.70;;;18.00;3.60;;;;;;7365505;19;20006;-66
2022/09/10 08:50:10;;;;;;;1.75;1.13;;;17.90;1.60;;;;;;7361234;19;20030;-67
2022/09/10 08:52:45;;;;;;;2.35;0.80;;;17.70;1.80;;;;;;7365667;19;20014;-67
2022/09/10 08:55:24;;;;;;;2.15;0.70;;;17.50;3.50;;;;;;7384047;19;20059;-66
2022/09/10 08:57:59;;;;;;;5.13;0.95;;;17.80;3.90;;;;;;7363582;19;20062;-66
2022/09/10 09:00:33;;;;;;;3.17;0.70;;;17.70;4.30;;;;;;7361571;19;20529;-67
2022/09/10 09:03:14;;;;;;;2.13;0.75;;;17.70;4.30;;;;;;7360583;19;20489;-67
2022/09/10 09:05:48;;;;;;;1.63;0.73;;;17.80;3.90;;;;;;7362661;19;20011;-65
2022/09/10 09:08:24;;;;;;;3.72;0.90;;;17.80;2.70;;;;;;7363098;19;20433;-67
2022/09/10 09:11:01;;;;;;;1.33;0.80;;;18.00;5.00;;;;;;7362511;19;20018;-66
2022/09/10 09:13:48;;;;;;;8.02;0.90;;;18.10;1.20;;;;;;7380653;19;20528;-66
2022/09/10 09:16:30;;;;;;;5.18;1.25;;;18.10;1.50;;;;;;7364727;19;20471;-66
2022/09/10 09:19:13;;;;;;;2.15;1.17;;;18.20;1.00;;;;;;7365499;19;20010;-67
2022/09/10 09:21:52;;;;;;;4.82;1.58;;;18.10;1.00;;;;;;7359633;19;20015;-66
2022/09/10 09:24:25;;;;;;;4.05;1.20;;;18.20;1.00;;;;;;7359519;19;20538;-66
2022/09/10 09:27:00;;;;;;;4.43;1.40;;;18.20;1.00;;;;;;7362614;19;20007;-66
2022/09/10 09:29:36;;;;;;;3.72;1.00;;;18.10;1.00;;;;;;7363958;19;20007;-66
2022/09/10 09:32:09;;;;;;;7.68;1.60;;;18.10;1.00;;;;;;7360702;19;20006;-67
2022/09/10 09:34:48;;;;;;;4.53;1.38;;;18.10;1.00;;;;;;7359771;19;20035;-65
2022/09/10 09:37:20;;;;;;;3.30;1.00;;;17.90;1.00;;;;;;7385229;19;20473;-67
2022/09/10 09:40:03;;;;;;;2.97;1.27;;;17.90;1.00;;;;;;7364399;19;20399;-66
2022/09/10 09:42:46;;;;;;;4.50;1.30;;;18.00;1.00;;;;;;7362281;19;20043;-65
2022/09/10 09:45:27;;;;;;;4.30;1.10;;;17.80;1.00;;;;;;7361835;19;20384;-67
2022/09/10 09:47:57;;;;;;;3.92;1.52;;;17.80;1.00;;;;;;7364235;19;20573;-66
2022/09/10 09:50:32;;;;;;;4.35;1.27;;;17.90;1.00;;;;;;7358957;19;20014;-66
2022/09/10 09:53:02;;;;;;;3.55;1.10;;;17.70;1.00;;;;;;7358971;19;20095;-66
2022/09/10 09:55:37;;;;;;;3.20;1.02;;;17.90;1.00;;;;;;7375877;19;20568;-66
2022/09/10 09:58:32;;;;;;;4.22;1.40;;;17.70;1.00;;;;;;7385931;19;20003;-66
2022/09/10 10:01:14;;;;;;;6.75;1.17;;;17.80;1.00;;;;;;7361004;19;20021;-66
2022/09/10 10:03:51;;;;;;;2.70;1.08;;;17.80;1.00;;;;;;7357328;19;20082;-67
2022/09/10 10:06:25;;;;;;;2.88;1.02;;;17.60;1.00;;;;;;7360983;19;20015;-67
2022/09/10 10:09:02;;;;;;;9.02;1.60;;;17.50;1.00;;;;;;7363644;19;20017;-66
2022/09/10 10:11:50;;;;;;;3.50;1.10;;;17.50;1.00;;;;;;7357940;19;20014;-65
2022/09/10 10:14:41;;;;;;;3.10;1.25;;;17.30;1.80;;;;;;7359729;19;20034;-66
2022/09/10 10:17:32;;;;;;;4.95;1.48;;;16.30;29.60;;;;;;7361803;19;20012;-66
2022/09/10 10:20:08;;;;;;;5.93;1.63;;;16.20;27.00;;;;;;7359303;19;20007;-66
2022/09/10 10:22:42;;;;;;;6.13;1.77;;;16.10;28.90;;;;;;7360863;19;20015;-66
2022/09/10 10:25:39;;;;;;;5.32;1.95;;;16.10;29.70;;;;;;7381956;19;20010;-66
2022/09/10 10:28:17;;;;;;;7.28;2.35;;;16.60;27.60;;;;;;7363222;19;20010;-67
2022/09/10 10:30:53;;;;;;;9.10;2.45;;;16.90;29.70;;;;;;7360065;19;20621;-67
2022/09/10 10:33:29;;;;;;;5.40;1.67;;;17.30;32.10;;;;;;7357503;19;20017;-67
2022/09/10 10:36:08;;;;;;;3.78;1.75;;;17.50;26.40;;;;;;7363380;19;20039;-66
2022/09/10 10:38:44;;;;;;;8.20;2.38;;;17.10;22.70;;;;;;7362503;19;20015;-65
2022/09/10 10:41:39;;;;;;;3.40;1.40;;;16.80;23.20;;;;;;7359872;19;20014;-66
2022/09/10 10:44:23;;;;;;;5.43;1.60;;;17.20;30.00;;;;;;7360210;19;20007;-66
2022/09/10 10:47:06;;;;;;;2.55;1.10;;;17.30;27.00;;;;;;7361463;19;20003;-67
2022/09/10 10:49:49;;;;;;;3.58;0.93;;;17.60;24.00;;;;;;7361349;19;20014;-67
2022/09/10 10:52:28;;;;;;;5.15;1.35;;;17.60;19.00;;;;;;7381766;19;20011;-65
2022/09/10 10:55:13;;;;;;;5.70;1.30;;;17.90;20.60;;;;;;7359204;19;20025;-66
2022/09/10 10:58:09;;;;;;;4.47;1.42;;;18.10;16.00;;;;;;7359383;19;20010;-67
2022/09/10 11:00:43;;;;;;;2.97;0.90;;;18.50;16.60;;;;;;7358197;19;20542;-66
2022/09/10 11:03:20;;;;;;;5.25;0.82;;;18.40;10.70;;;;;;7355768;19;20002;-67
2022/09/10 11:05:54;;;;;;;2.90;0.75;;;18.60;12.80;;;;;;7362324;19;20027;-67
2022/09/10 11:08:32;;;;;;;2.60;0.80;;;18.60;2.90;;;;;;7361958;19;20010;-67
2022/09/10 11:11:09;;;;;;;2.90;0.80;;;18.70;2.40;;;;;;7357880;19;20040;-67
2022/09/10 11:13:43;;;;;;;1.83;0.90;;;18.90;2.60;;;;;;7357758;19;20031;-67
2022/09/10 11:16:19;;;;;;;3.80;1.30;;;18.70;1.00;;;;;;7384607;19;20011;-66
2022/09/10 11:18:53;;;;;;;1.85;0.80;;;18.50;1.00;;;;;;7359128;19;20007;-67
2022/09/10 11:21:29;;;;;;;3.03;1.10;;;18.70;1.00;;;;;;7358254;19;20011;-67
2022/09/10 11:24:03;;;;;;;2.97;0.70;;;19.10;1.00;;;;;;7358781;19;20006;-66
2022/09/10 11:26:40;;;;;;;3.50;0.90;;;19.40;1.00;;;;;;7360348;19;20047;-67
2022/09/10 11:29:24;;;;;;;3.17;0.93;;;19.30;1.00;;;;;;7362477;19;20014;-66
2022/09/10 11:31:59;;;;;;;;;;;19.50;1.00;;;;;;7363949;19;20015;-67
2022/09/10 11:34:36;;;;;;;2.80;0.90;;;19.50;1.00;;;;;;7387028;19;19925;-65
2022/09/10 11:37:15;;;;;;;5.38;1.17;;;19.30;1.00;;;;;;7365734;19;20014;-66
2022/09/10 11:39:49;;;;;;;3.17;0.80;;;19.50;1.00;;;;;;7365688;19;20091;-66
2022/09/10 11:42:26;;;;;;;1.73;0.88;;;18.90;1.00;;;;;;7363194;19;20130;-66
2022/09/10 11:45:02;;;;;;;1.80;0.70;;;19.10;1.00;;;;;;7363695;19;20352;-66
2022/09/10 11:47:36;;;;;;;4.85;1.30;;;19.50;1.00;;;;;;7367329;19;20030;-67
2022/09/10 11:50:16;;;;;;;3.08;0.90;;;19.40;1.00;;;;;;7365560;19;20010;-68
2022/09/10 11:52:45;;;;;;;1.50;0.68;;;19.10;1.00;;;;;;7364778;19;20325;-67
2022/09/10 11:55:17;;;;;;;2.20;0.93;;;19.40;1.00;;;;;;7389236;19;20056;-66
2022/09/10 11:58:03;;;;;;;2.55;1.20;;;19.30;1.00;;;;;;7365358;19;20010;-65
2022/09/10 12:00:38;;;;;;;1.38;0.90;;;19.40;1.00;;;;;;7362945;19;20011;-66
2022/09/10 12:03:34;;;;;;;2.00;0.70;;;19.90;1.00;;;;;;7361359;19;21434;-66
2022/09/10 12:06:08;;;;;;;1.60;0.65;;;19.80;1.00;;;;;;7366736;19;20011;-66
2022/09/10 12:08:50;;;;;;;3.83;0.90;;;20.40;1.00;;;;;;7366449;19;20015;-66
2022/09/10 12:11:28;;;;;;;3.75;1.00;;;19.70;1.00;;;;;;7362842;19;20018;-66
2022/09/10 12:14:01;;;;;;;1.10;0.63;;;20.20;1.00;;;;;;7362851;19;20079;-66
2022/09/10 12:16:36;;;;;;;2.70;0.80;;;20.10;1.00;;;;;;7382295;19;20023;-68
2022/09/10 12:19:11;;;;;;;1.77;0.90;;;20.00;1.00;;;;;;7388096;19;20475;-66
2022/09/10 12:21:45;;;;;;;1.13;0.60;;;20.30;1.00;;;;;;7361343;19;20454;-65
2022/09/10 12:24:27;;;;;;;1.95;0.80;;;19.90;1.00;;;;;;7362389;19;20007;-66
2022/09/10 12:26:58;;;;;;;3.53;1.02;;;19.90;1.00;;;;;;7365923;19;20011;-66
2022/09/10 12:29:32;;;;;;;3.15;0.77;;;19.80;1.00;;;;;;7367629;19;20362;-66
2022/09/10 12:32:32;;;;;;;1.50;0.60;;;19.60;1.00;;;;;;7361886;19;20010;-66
2022/09/10 12:35:47;;;;;;;4.18;0.98;;;19.00;1.00;;;;;;7363773;19;20022;-66
2022/09/10 12:38:48;;;;;;;3.88;1.10;;;18.90;1.00;;;;;;7365453;19;20749;-65
2022/09/10 12:42:02;;;;;;;7.38;1.58;;;18.80;1.00;;;;;;7362557;19;20011;-66
2022/09/10 12:44:48;;;;;;;2.50;0.65;;;19.00;1.00;;;;;;7359969;19;20085;-66
2022/09/10 12:47:51;;;;;;;1.85;0.70;;;19.50;1.00;;;;;;7363139;19;20014;-66
2022/09/10 12:50:45;;;;;;;2.80;0.95;;;19.80;1.00;;;;;;7362722;19;20030;-66
2022/09/10 12:53:52;;;;;;;4.27;1.13;;;20.20;1.00;;;;;;7360706;19;20014;-65
2022/09/10 12:56:41;;;;;;;2.10;0.77;;;19.50;1.00;;;;;;7364291;19;20014;-66
2022/09/10 12:59:33;;;;;;;3.13;0.70;;;19.90;1.00;;;;;;7365685;19;20074;-65
2022/09/10 13:02:20;;;;;;;1.48;0.70;;;19.90;1.00;;;;;;7360486;19;20090;-66
2022/09/10 13:04:57;;;;;;;1.73;0.60;;;19.70;1.00;;;;;;7361721;19;20026;-66
2022/09/10 13:07:35;;;;;;;2.53;0.95;;;19.40;1.00;;;;;;7383434;19;20530;-66
2022/09/10 13:10:16;;;;;;;2.95;0.90;;;19.90;1.00;;;;;;7361661;19;20007;-65
2022/09/10 13:12:54;;;;;;;2.42;0.85;;;20.00;1.00;;;;;;7360011;19;20772;-66
2022/09/10 13:15:28;;;;;;;4.47;0.80;;;20.40;1.00;;;;;;7363992;19;20035;-66
2022/09/10 13:18:29;;;;;;;4.80;0.98;;;20.00;1.00;;;;;;7364071;19;20806;-66
2022/09/10 13:20:59;;;;;;;0.95;0.80;;;20.10;1.00;;;;;;7362428;19;20021;-67
2022/09/10 13:23:49;;;;;;;1.83;0.63;;;20.20;1.00;;;;;;7359249;19;20010;-67
2022/09/10 13:26:51;;;;;;;3.08;0.93;;;19.90;1.00;;;;;;7364507;19;20026;-65
2022/09/10 13:29:35;;;;;;;4.78;0.90;;;19.80;1.00;;;;;;7363690;19;20038;-66